createdAt,value
2022-10-19T00:01:31.452Z,8.28
2022-10-19T00:03:58.869Z,8.26
2022-10-19T00:06:31.666Z,8.26
2022-10-19T00:09:01.924Z,8.24
2022-10-19T00:11:29.420Z,8.21
2022-10-19T00:13:57.102Z,8.20
2022-10-19T00:16:25.413Z,8.16
2022-10-19T00:18:51.862Z,8.15
2022-10-19T00:21:19.349Z,8.13
2022-10-19T00:23:46.132Z,8.12
2022-10-19T00:26:13.388Z,8.11
2022-10-19T00:28:40.064Z,8.11
2022-10-19T00:31:09.745Z,8.11
2022-10-19T00:33:36.647Z,8.09
2022-10-19T00:36:03.974Z,8.05
2022-10-19T00:38:30.772Z,8.03
2022-10-19T00:40:57.292Z,8.00
2022-10-19T00:43:25.975Z,8.01
2022-10-19T00:45:53.080Z,8.02
2022-10-19T00:48:25.734Z,8.01
2022-10-19T00:50:54.872Z,8.00
2022-10-19T00:53:21.481Z,8.00
2022-10-19T00:55:48.055Z,7.97
2022-10-19T00:58:14.616Z,7.94
2022-10-19T01:00:41.317Z,7.95
2022-10-19T01:03:08.574Z,7.95
2022-10-19T01:05:35.261Z,7.95
2022-10-19T01:08:02.080Z,7.93
2022-10-19T01:13:42.760Z,7.85
2022-10-19T01:16:27.935Z,7.82
2022-10-19T01:19:00.564Z,7.81
2022-10-19T01:21:37.155Z,7.77
2022-10-19T01:24:40.553Z,7.74
2022-10-19T01:27:22.276Z,7.72
2022-10-19T01:30:00.384Z,7.73
2022-10-19T01:32:41.068Z,7.72
2022-10-19T01:35:11.731Z,7.69
2022-10-19T01:37:45.397Z,7.68
2022-10-19T01:40:31.100Z,7.63
2022-10-19T01:42:57.623Z,7.57
2022-10-19T01:45:33.184Z,7.58
2022-10-19T01:48:03.307Z,7.58
2022-10-19T01:50:55.924Z,7.58
2022-10-19T01:53:24.092Z,7.54
2022-10-19T01:55:52.259Z,7.54
2022-10-19T01:58:22.890Z,7.53
2022-10-19T02:00:51.517Z,7.50
2022-10-19T02:03:18.483Z,7.46
2022-10-19T02:05:45.786Z,7.44
2022-10-19T02:08:15.435Z,7.43
2022-10-19T02:10:42.926Z,7.41
2022-10-19T02:13:09.540Z,7.38
2022-10-19T02:15:38.615Z,7.37
2022-10-19T02:18:07.127Z,7.36
2022-10-19T02:20:35.602Z,7.35
2022-10-19T02:23:07.248Z,7.33
2022-10-19T02:25:34.550Z,7.33
2022-10-19T02:28:02.488Z,7.31
2022-10-19T02:30:29.029Z,7.32
2022-10-19T02:32:55.521Z,7.33
2022-10-19T02:35:22.960Z,7.30
2022-10-19T02:37:49.567Z,7.28
2022-10-19T02:40:16.375Z,7.26
2022-10-19T02:42:51.210Z,7.24
2022-10-19T02:45:31.167Z,7.22
2022-10-19T02:48:01.238Z,7.17
2022-10-19T02:50:27.879Z,7.12
2022-10-19T02:52:54.475Z,7.10
2022-10-19T02:55:21.121Z,7.08
2022-10-19T02:57:47.595Z,7.07
2022-10-19T03:00:14.697Z,7.10
2022-10-19T03:02:41.266Z,7.08
2022-10-19T03:05:08.376Z,7.05
2022-10-19T03:07:35.470Z,6.98
2022-10-19T03:10:02.339Z,6.95
2022-10-19T03:12:28.827Z,6.92
2022-10-19T03:14:55.361Z,6.91
2022-10-19T03:17:21.893Z,6.87
2022-10-19T03:19:48.383Z,6.83
2022-10-19T03:22:14.982Z,6.81
2022-10-19T03:24:41.529Z,6.80
2022-10-19T03:27:07.985Z,6.79
2022-10-19T03:29:34.473Z,6.77
2022-10-19T03:32:01.085Z,6.74
2022-10-19T03:34:27.536Z,6.73
2022-10-19T03:36:54.274Z,6.72
2022-10-19T03:39:20.726Z,6.70
2022-10-19T03:41:47.274Z,6.69
2022-10-19T03:44:13.817Z,6.68
2022-10-19T03:46:40.527Z,6.69
2022-10-19T03:49:07.161Z,6.69
2022-10-19T03:51:34.087Z,6.69
2022-10-19T03:54:03.126Z,6.67
2022-10-19T03:56:30.622Z,6.65
2022-10-19T03:58:58.723Z,6.66
2022-10-19T04:01:28.577Z,6.65
2022-10-19T04:03:57.138Z,6.65
2022-10-19T04:06:26.385Z,6.66
2022-10-19T04:08:53.070Z,6.67
2022-10-19T04:11:22.949Z,6.71
2022-10-19T04:13:50.521Z,6.72
2022-10-19T04:16:17.671Z,6.73
2022-10-19T04:18:44.190Z,6.73
2022-10-19T04:21:20.028Z,6.75
2022-10-19T04:23:46.533Z,6.77
2022-10-19T04:26:13.016Z,6.75
2022-10-19T04:28:39.634Z,6.74
2022-10-19T04:31:06.830Z,6.74
2022-10-19T04:33:34.275Z,6.75
2022-10-19T04:36:02.283Z,6.72
2022-10-19T04:38:29.225Z,6.72
2022-10-19T04:40:56.415Z,6.73
2022-10-19T04:43:23.076Z,6.73
2022-10-19T04:45:49.567Z,6.75
2022-10-19T04:48:16.106Z,6.71
2022-10-19T04:50:42.622Z,6.68
2022-10-19T04:53:09.073Z,6.65
2022-10-19T04:55:41.195Z,6.66
2022-10-19T04:58:08.090Z,6.63
2022-10-19T05:00:34.881Z,6.61
2022-10-19T05:03:01.491Z,6.61
2022-10-19T05:05:28.124Z,6.62
2022-10-19T05:07:54.596Z,6.64
2022-10-19T05:10:21.099Z,6.61
2022-10-19T05:12:47.556Z,6.63
2022-10-19T05:15:14.132Z,6.64
2022-10-19T05:17:40.599Z,6.64
2022-10-19T05:20:07.812Z,6.59
2022-10-19T05:22:34.385Z,6.57
2022-10-19T05:25:00.841Z,6.54
2022-10-19T05:27:27.466Z,6.54
2022-10-19T05:29:53.933Z,6.51
2022-10-19T05:32:20.446Z,6.51
2022-10-19T05:34:46.926Z,6.47
2022-10-19T05:37:13.575Z,6.47
2022-10-19T05:39:40.337Z,6.50
2022-10-19T05:42:06.839Z,6.49
2022-10-19T05:44:33.332Z,6.47
2022-10-19T05:47:00.565Z,6.49
2022-10-19T05:49:27.012Z,6.49
2022-10-19T05:51:53.853Z,6.51
2022-10-19T05:54:22.703Z,6.49
2022-10-19T05:56:51.603Z,6.49
2022-10-19T05:59:19.664Z,6.55
2022-10-19T06:01:47.103Z,6.61
2022-10-19T06:04:15.012Z,6.66
2022-10-19T06:06:42.750Z,6.69
2022-10-19T06:09:09.718Z,6.68
2022-10-19T06:11:39.141Z,6.71
2022-10-19T06:14:08.458Z,6.70
2022-10-19T06:16:35.501Z,6.70
2022-10-19T06:19:02.080Z,6.69
2022-10-19T06:21:30.152Z,6.70
2022-10-19T06:23:58.830Z,6.68
2022-10-19T06:26:26.517Z,6.69
2022-10-19T06:28:56.040Z,6.70
2022-10-19T06:31:22.530Z,6.70
2022-10-19T06:33:49.762Z,6.75
2022-10-19T06:36:21.822Z,6.81
2022-10-19T06:38:48.924Z,6.82
2022-10-19T06:41:15.698Z,6.87
2022-10-19T06:43:43.509Z,6.92
2022-10-19T06:46:20.716Z,6.99
2022-10-19T06:48:52.109Z,7.06
2022-10-19T06:51:18.705Z,7.10
2022-10-19T06:53:45.220Z,7.15
2022-10-19T06:56:11.756Z,7.22
2022-10-19T06:58:38.897Z,7.32
2022-10-19T07:01:09.434Z,7.43
2022-10-19T07:03:36.597Z,7.59
2022-10-19T07:06:06.147Z,7.73
2022-10-19T07:08:32.974Z,7.85
2022-10-19T07:11:02.691Z,7.97
2022-10-19T07:13:29.885Z,8.11
2022-10-19T07:16:02.742Z,8.25
2022-10-19T07:18:29.414Z,8.41
2022-10-19T07:21:01.249Z,8.53
2022-10-19T07:23:29.431Z,8.61
2022-10-19T07:26:01.113Z,8.68
2022-10-19T07:28:29.501Z,8.81
2022-10-19T07:30:56.141Z,8.99
2022-10-19T07:33:22.684Z,9.36
2022-10-19T07:35:49.395Z,9.95
2022-10-19T07:38:15.934Z,10.49
2022-10-19T07:40:44.914Z,10.85
2022-10-19T07:43:13.839Z,11.19
2022-10-19T07:45:40.372Z,11.74
2022-10-19T07:48:06.916Z,12.23
2022-10-19T07:50:33.438Z,12.24
2022-10-19T07:53:00.004Z,12.70
2022-10-19T07:55:26.527Z,13.05
2022-10-19T07:57:53.037Z,13.00
2022-10-19T08:00:19.642Z,13.55
2022-10-19T08:03:05.106Z,13.41
2022-10-19T08:05:33.547Z,14.05
2022-10-19T08:08:00.085Z,14.42
2022-10-19T08:10:26.659Z,14.88
2022-10-19T08:12:53.256Z,14.86
2022-10-19T08:15:19.739Z,14.41
2022-10-19T08:17:46.392Z,14.81
2022-10-19T08:20:12.960Z,14.54
2022-10-19T08:22:39.701Z,14.27
2022-10-19T08:25:06.368Z,14.02
2022-10-19T08:27:33.004Z,14.49
2022-10-19T08:29:59.588Z,15.29
2022-10-19T08:32:26.070Z,15.68
2022-10-19T08:34:52.533Z,16.34
2022-10-19T08:37:26.440Z,15.98
2022-10-19T08:40:06.395Z,15.69
2022-10-19T08:42:47.790Z,15.62
2022-10-19T08:45:32.692Z,15.70
2022-10-19T08:48:02.039Z,16.00
2022-10-19T08:50:39.274Z,15.77
2022-10-19T08:53:10.441Z,15.38
2022-10-19T08:56:07.693Z,15.75
2022-10-19T08:58:51.301Z,16.21
2022-10-19T09:01:21.105Z,16.35
2022-10-19T09:03:55.755Z,16.71
2022-10-19T09:06:41.885Z,16.56
2022-10-19T09:09:12.451Z,16.22
2022-10-19T09:11:42.862Z,16.24
2022-10-19T09:14:26.098Z,15.94
2022-10-19T09:16:52.764Z,15.97
2022-10-19T09:19:25.945Z,15.38
2022-10-19T09:21:58.447Z,16.45
2022-10-19T09:27:47.620Z,16.52
2022-10-19T09:30:20.113Z,16.42
2022-10-19T09:32:47.979Z,16.75
2022-10-19T09:35:14.425Z,16.23
2022-10-19T09:37:45.215Z,15.61
2022-10-19T09:40:18.391Z,15.83
2022-10-19T09:42:44.929Z,16.28
2022-10-19T09:45:16.914Z,17.01
2022-10-19T09:47:46.430Z,16.14
2022-10-19T09:50:20.320Z,16.16
2022-10-19T09:52:51.818Z,16.22
2022-10-19T09:55:40.650Z,15.76
2022-10-19T09:58:12.986Z,15.61
2022-10-19T10:00:48.001Z,15.45
2022-10-19T10:03:50.087Z,14.83
2022-10-19T10:06:18.000Z,14.96
2022-10-19T10:08:57.973Z,15.08
2022-10-19T10:11:28.347Z,14.71
2022-10-19T10:13:55.818Z,15.40
2022-10-19T10:16:24.313Z,16.43
2022-10-19T10:18:55.272Z,16.63
2022-10-19T10:21:27.266Z,15.87
2022-10-19T10:23:59.985Z,16.43
2022-10-19T10:26:26.899Z,16.88
2022-10-19T10:28:55.626Z,16.64
2022-10-19T10:31:28.112Z,15.82
2022-10-19T10:34:02.911Z,16.59
2022-10-19T10:36:37.694Z,16.99
2022-10-19T10:39:08.486Z,16.18
2022-10-19T10:41:38.612Z,16.26
2022-10-19T10:44:18.879Z,16.56
2022-10-19T10:46:56.763Z,15.42
2022-10-19T10:49:28.604Z,15.51
2022-10-19T10:52:01.032Z,15.73
2022-10-19T10:54:31.181Z,15.74
2022-10-19T10:57:06.831Z,15.58
2022-10-19T10:59:45.461Z,16.22
2022-10-19T11:02:18.871Z,16.31
2022-10-19T11:04:52.347Z,16.24
2022-10-19T11:07:23.834Z,16.50
2022-10-19T11:09:57.816Z,16.65
2022-10-19T11:15:58.787Z,16.88
2022-10-19T11:18:37.995Z,16.65
2022-10-19T11:21:09.910Z,17.03
2022-10-19T11:23:54.329Z,16.35
2022-10-19T11:29:42.324Z,15.96
2022-10-19T11:32:18.927Z,15.91
2022-10-19T11:35:00.681Z,16.13
2022-10-19T11:37:50.118Z,16.38
2022-10-19T11:41:18.360Z,16.47
2022-10-19T11:44:15.854Z,15.92
2022-10-19T11:46:42.262Z,15.65
2022-10-19T11:49:31.472Z,16.35
2022-10-19T11:51:59.755Z,16.51
2022-10-19T11:54:38.324Z,16.95
2022-10-19T11:57:11.349Z,16.70
2022-10-19T11:59:38.184Z,16.33
2022-10-19T12:02:23.348Z,16.77
2022-10-19T12:04:56.886Z,16.98
2022-10-19T12:08:01.724Z,16.40
2022-10-19T12:10:43.316Z,16.73
2022-10-19T12:13:13.231Z,17.01
2022-10-19T12:15:47.982Z,16.93
2022-10-19T12:18:20.656Z,16.49
2022-10-19T12:20:50.005Z,16.93
2022-10-19T12:23:33.948Z,16.80
2022-10-19T12:26:02.986Z,17.42
2022-10-19T12:28:34.808Z,17.39
2022-10-19T12:31:02.658Z,17.61
2022-10-19T12:33:49.286Z,17.75
2022-10-19T12:36:24.812Z,17.85
2022-10-19T12:39:09.554Z,17.77
2022-10-19T12:41:35.962Z,17.73
2022-10-19T12:44:39.616Z,17.97
2022-10-19T12:47:12.419Z,17.72
2022-10-19T12:49:50.613Z,17.52
2022-10-19T12:52:37.692Z,17.33
2022-10-19T12:55:13.459Z,17.05
2022-10-19T12:57:40.448Z,17.36
2022-10-19T13:00:23.380Z,17.66
2022-10-19T13:02:58.484Z,17.52
2022-10-19T13:05:25.176Z,17.33
2022-10-19T13:10:25.146Z,18.31
2022-10-19T13:12:52.532Z,18.39
2022-10-19T13:15:34.499Z,18.36
2022-10-19T13:18:02.465Z,18.56
2022-10-19T13:20:29.203Z,18.30
2022-10-19T13:23:03.473Z,18.34
2022-10-19T13:25:40.238Z,18.13
2022-10-19T13:28:06.760Z,18.56
2022-10-19T13:30:39.117Z,18.85
2022-10-19T13:33:30.260Z,18.80
2022-10-19T13:35:59.756Z,18.76
2022-10-19T13:38:26.440Z,18.96
2022-10-19T13:40:53.037Z,19.16
2022-10-19T13:43:21.104Z,19.51
2022-10-19T13:46:19.406Z,18.87
2022-10-19T13:49:10.569Z,18.52
2022-10-19T13:52:13.922Z,18.39
2022-10-19T13:54:51.522Z,18.70
2022-10-19T13:58:02.826Z,18.12
2022-10-19T14:00:45.294Z,18.18
2022-10-19T14:03:22.494Z,19.07
2022-10-19T14:06:00.966Z,19.11
2022-10-19T14:08:43.228Z,19.44
2022-10-19T14:11:19.158Z,19.73
2022-10-19T14:13:46.962Z,19.48
2022-10-19T14:16:22.332Z,18.44
2022-10-19T14:18:55.775Z,19.24
2022-10-19T14:21:33.837Z,19.49
2022-10-19T14:24:00.574Z,19.46
2022-10-19T14:26:32.107Z,19.62
2022-10-19T14:28:59.675Z,19.77
2022-10-19T14:31:33.413Z,19.81
2022-10-19T14:34:02.746Z,19.49
2022-10-19T14:36:35.714Z,19.94
2022-10-19T14:39:02.502Z,20.09
2022-10-19T14:41:30.447Z,19.47
2022-10-19T14:43:57.670Z,19.31
2022-10-19T14:46:31.198Z,19.17
2022-10-19T14:49:02.569Z,19.58
2022-10-19T14:51:41.265Z,19.81
2022-10-19T14:54:13.591Z,19.02
2022-10-19T14:56:53.843Z,18.56
2022-10-19T14:59:27.497Z,18.76
2022-10-19T15:01:56.558Z,18.12
2022-10-19T15:04:26.018Z,17.71
2022-10-19T15:06:53.353Z,17.04
2022-10-19T15:09:37.587Z,16.99
2022-10-19T15:12:16.111Z,16.41
2022-10-19T15:14:42.866Z,15.72
2022-10-19T15:17:25.154Z,15.80
2022-10-19T15:19:52.008Z,15.75
2022-10-19T15:22:32.513Z,15.42
2022-10-19T15:25:08.069Z,15.26
2022-10-19T15:27:39.554Z,14.90
2022-10-19T15:30:24.069Z,15.03
2022-10-19T15:32:54.459Z,14.69
2022-10-19T15:35:26.348Z,14.54
2022-10-19T15:38:00.651Z,14.57
2022-10-19T15:40:34.843Z,14.49
2022-10-19T15:43:01.639Z,14.27
2022-10-19T15:45:36.726Z,14.37
2022-10-19T15:48:24.859Z,14.40
2022-10-19T15:50:53.081Z,14.43
2022-10-19T15:53:20.203Z,14.40
2022-10-19T15:55:46.798Z,14.28
2022-10-19T15:58:14.148Z,14.05
2022-10-19T16:00:41.535Z,14.07
2022-10-19T16:03:09.114Z,13.98
2022-10-19T16:05:36.498Z,13.80
2022-10-19T16:08:03.552Z,13.83
2022-10-19T16:10:30.047Z,13.72
2022-10-19T16:12:56.518Z,13.62
2022-10-19T16:15:23.535Z,13.54
2022-10-19T16:17:53.394Z,13.53
2022-10-19T16:20:20.048Z,13.36
2022-10-19T16:22:47.342Z,13.28
2022-10-19T16:25:14.217Z,13.20
2022-10-19T16:27:41.186Z,13.23
2022-10-19T16:30:08.299Z,13.18
2022-10-19T16:32:34.903Z,13.16
2022-10-19T16:35:01.429Z,13.00
2022-10-19T16:37:27.933Z,12.91
2022-10-19T16:39:54.683Z,12.89
2022-10-19T16:42:21.829Z,12.94
2022-10-19T16:44:48.938Z,12.78
2022-10-19T16:47:16.990Z,12.76
2022-10-19T16:49:43.493Z,12.71
2022-10-19T16:52:14.007Z,12.70
2022-10-19T16:54:40.670Z,12.67
2022-10-19T16:57:09.799Z,12.61
2022-10-19T16:59:36.646Z,12.65
2022-10-19T17:02:03.148Z,12.53
2022-10-19T17:04:29.628Z,12.50
2022-10-19T17:06:57.126Z,12.50
2022-10-19T17:12:12.465Z,12.38
2022-10-19T17:14:40.722Z,12.40
2022-10-19T17:17:07.926Z,12.41
2022-10-19T17:19:34.389Z,12.37
2022-10-19T17:22:02.237Z,12.34
2022-10-19T17:24:29.282Z,12.33
2022-10-19T17:26:55.945Z,12.25
2022-10-19T17:29:22.927Z,12.26
2022-10-19T17:31:50.097Z,12.27
2022-10-19T17:34:16.746Z,12.25
2022-10-19T17:36:46.844Z,12.23
2022-10-19T17:39:17.722Z,12.25
2022-10-19T17:41:48.952Z,12.18
2022-10-19T17:44:16.440Z,12.17
2022-10-19T17:46:43.116Z,12.10
2022-10-19T17:49:10.243Z,12.07
2022-10-19T17:51:37.950Z,12.04
2022-10-19T17:54:14.698Z,12.04
2022-10-19T17:56:41.940Z,12.05
2022-10-19T17:59:09.310Z,12.02
2022-10-19T18:01:37.030Z,12.03
2022-10-19T18:04:04.167Z,11.91
2022-10-19T18:06:32.511Z,11.89
2022-10-19T18:09:00.326Z,11.89
2022-10-19T18:11:28.727Z,11.84
2022-10-19T18:13:57.671Z,11.82
2022-10-19T18:16:35.822Z,11.76
2022-10-19T18:19:03.724Z,11.78
2022-10-19T18:21:32.472Z,11.79
2022-10-19T18:24:00.746Z,11.69
2022-10-19T18:26:29.278Z,11.59
2022-10-19T18:28:56.606Z,11.62
2022-10-19T18:31:25.641Z,11.54
2022-10-19T18:34:03.485Z,11.49
2022-10-19T18:36:31.185Z,11.48
2022-10-19T18:39:00.235Z,11.45
2022-10-19T18:41:27.450Z,11.43
2022-10-19T18:43:56.481Z,11.36
2022-10-19T18:46:24.468Z,11.34
2022-10-19T18:48:51.266Z,11.29
2022-10-19T18:51:18.506Z,11.28
2022-10-19T18:53:45.653Z,11.25
2022-10-19T18:56:14.566Z,11.23
2022-10-19T18:58:41.446Z,11.21
2022-10-19T19:01:17.292Z,11.15
2022-10-19T19:03:46.859Z,11.13
2022-10-19T19:06:16.743Z,11.08
2022-10-19T19:11:21.491Z,11.00
2022-10-19T19:13:49.945Z,10.97
2022-10-19T19:16:16.689Z,11.02
2022-10-19T19:18:43.510Z,10.96
2022-10-19T19:21:14.996Z,10.96
2022-10-19T19:23:41.662Z,10.94
2022-10-19T19:26:09.349Z,10.87
2022-10-19T19:28:39.157Z,10.87
2022-10-19T19:31:08.819Z,10.84
2022-10-19T19:33:35.628Z,10.75
2022-10-19T19:36:05.537Z,10.76
2022-10-19T19:38:32.115Z,10.72
2022-10-19T19:40:58.662Z,10.72
2022-10-19T19:43:25.198Z,10.65
2022-10-19T19:46:00.966Z,10.60
2022-10-19T19:48:29.821Z,10.59
2022-10-19T19:50:56.536Z,10.58
2022-10-19T19:53:23.058Z,10.52
2022-10-19T19:55:49.892Z,10.51
2022-10-19T19:58:16.610Z,10.47
2022-10-19T20:00:43.612Z,10.46
2022-10-19T20:03:12.453Z,10.45
2022-10-19T20:05:39.967Z,10.45
2022-10-19T20:08:07.464Z,10.42
2022-10-19T20:10:38.220Z,10.37
2022-10-19T20:15:39.441Z,10.34
2022-10-19T20:18:06.611Z,10.33
2022-10-19T20:20:33.117Z,10.30
2022-10-19T20:22:59.580Z,10.34
2022-10-19T20:25:26.131Z,10.29
2022-10-19T20:27:52.686Z,10.29
2022-10-19T20:30:19.215Z,10.28
2022-10-19T20:32:45.707Z,10.25
2022-10-19T20:35:12.200Z,10.27
2022-10-19T20:37:38.784Z,10.25
2022-10-19T20:40:08.503Z,10.27
2022-10-19T20:42:35.700Z,10.24
2022-10-19T20:45:02.539Z,10.19
2022-10-19T20:47:29.419Z,10.16
2022-10-19T20:49:55.983Z,10.15
2022-10-19T20:52:22.601Z,10.16
2022-10-19T20:54:49.311Z,10.10
2022-10-19T20:57:15.829Z,10.12
2022-10-19T20:59:43.856Z,10.10
2022-10-19T21:02:10.910Z,10.09
2022-10-19T21:04:37.633Z,10.12
2022-10-19T21:07:04.985Z,10.10
2022-10-19T21:09:31.568Z,10.12
2022-10-19T21:11:58.219Z,10.12
2022-10-19T21:14:28.589Z,10.09
2022-10-19T21:16:57.517Z,10.06
2022-10-19T21:19:25.681Z,10.04
2022-10-19T21:21:55.471Z,10.00
2022-10-19T21:24:27.343Z,9.99
2022-10-19T21:26:54.488Z,9.98
2022-10-19T21:29:21.388Z,9.98
2022-10-19T21:31:49.535Z,9.92
2022-10-19T21:34:19.056Z,9.92
2022-10-19T21:36:45.749Z,9.93
2022-10-19T21:39:12.316Z,9.91
2022-10-19T21:41:38.780Z,9.92
2022-10-19T21:44:05.502Z,9.90
2022-10-19T21:46:32.141Z,9.89
2022-10-19T21:48:58.775Z,9.89
2022-10-19T21:51:36.912Z,9.88
2022-10-19T21:54:08.208Z,9.91
2022-10-19T21:56:35.199Z,9.88
2022-10-19T21:59:01.699Z,9.87
2022-10-19T22:01:29.492Z,9.89
2022-10-19T22:03:57.426Z,9.90
2022-10-19T22:06:24.860Z,9.91
2022-10-19T22:08:51.474Z,9.89
2022-10-19T22:11:18.017Z,9.91
2022-10-19T22:13:44.610Z,9.90
2022-10-19T22:16:16.949Z,9.92
2022-10-19T22:18:43.838Z,9.90
2022-10-19T22:21:15.969Z,9.88
2022-10-19T22:23:43.295Z,9.85
2022-10-19T22:26:17.644Z,9.83
2022-10-19T22:28:44.918Z,9.81
2022-10-19T22:31:12.445Z,9.80
2022-10-19T22:33:39.416Z,9.79
2022-10-19T22:36:08.393Z,9.80
2022-10-19T22:38:35.431Z,9.80
2022-10-19T22:41:58.494Z,9.75
2022-10-19T22:44:25.054Z,9.74
2022-10-19T22:46:51.536Z,9.73
2022-10-19T22:49:18.015Z,9.73
2022-10-19T22:51:44.495Z,9.68
2022-10-19T22:54:11.356Z,9.66
2022-10-19T22:56:37.931Z,9.64
2022-10-19T22:59:05.416Z,9.65
2022-10-19T23:01:32.051Z,9.63
2022-10-19T23:03:59.274Z,9.64
2022-10-19T23:06:25.778Z,9.61
2022-10-19T23:08:53.770Z,9.56
2022-10-19T23:11:20.711Z,9.54
2022-10-19T23:13:47.346Z,9.53
2022-10-19T23:16:13.846Z,9.52
2022-10-19T23:18:41.229Z,9.50
2022-10-19T23:21:14.602Z,9.47
2022-10-19T23:23:41.707Z,9.46
2022-10-19T23:26:13.421Z,9.45
2022-10-19T23:28:41.074Z,9.44
2022-10-19T23:31:16.578Z,9.42
2022-10-19T23:33:43.625Z,9.42
2022-10-19T23:36:12.208Z,9.41
2022-10-19T23:38:38.759Z,9.36
2022-10-19T23:41:05.314Z,9.38
2022-10-19T23:43:31.905Z,9.38
2022-10-19T23:45:58.736Z,9.41
2022-10-19T23:48:25.335Z,9.39
2022-10-19T23:50:58.032Z,9.37
2022-10-19T23:53:24.834Z,9.38
2022-10-19T23:55:51.541Z,9.40
2022-10-19T23:58:18.059Z,9.39
